sensor_id;sensor_type;location;lat;lon;timestamp;P1;durP1;ratioP1;P2;durP2;ratioP2
22172;SDS011;11252;50.596;17.648;2023-01-25T00:00:38;72.00;;;37.47;;
22172;SDS011;11252;50.596;17.648;2023-01-25T00:03:05;60.50;;;34.67;;
22172;SDS011;11252;50.596;17.648;2023-01-25T00:05:32;62.87;;;35.93;;
22172;SDS011;11252;50.596;17.648;2023-01-25T00:08:00;60.67;;;35.97;;
22172;SDS011;11252;50.596;17.648;2023-01-25T00:10:27;69.93;;;36.77;;
22172;SDS011;11252;50.596;17.648;2023-01-25T00:12:54;65.00;;;36.57;;
22172;SDS011;11252;50.596;17.648;2023-01-25T00:15:22;78.83;;;41.80;;
22172;SDS011;11252;50.596;17.648;2023-01-25T00:17:49;76.83;;;40.23;;
22172;SDS011;11252;50.596;17.648;2023-01-25T00:20:17;66.50;;;38.03;;
22172;SDS011;11252;50.596;17.648;2023-01-25T00:22:44;73.40;;;39.57;;
22172;SDS011;11252;50.596;17.648;2023-01-25T00:25:11;65.27;;;36.67;;
22172;SDS011;11252;50.596;17.648;2023-01-25T00:27:38;68.93;;;36.43;;
22172;SDS011;11252;50.596;17.648;2023-01-25T00:30:06;68.43;;;37.37;;
22172;SDS011;11252;50.596;17.648;2023-01-25T00:32:40;63.57;;;35.13;;
22172;SDS011;11252;50.596;17.648;2023-01-25T00:35:19;64.63;;;35.30;;
22172;SDS011;11252;50.596;17.648;2023-01-25T00:37:47;61.20;;;33.50;;
22172;SDS011;11252;50.596;17.648;2023-01-25T00:40:17;64.77;;;35.20;;
22172;SDS011;11252;50.596;17.648;2023-01-25T00:42:45;58.40;;;33.37;;
22172;SDS011;11252;50.596;17.648;2023-01-25T00:45:12;64.00;;;33.73;;
22172;SDS011;11252;50.596;17.648;2023-01-25T00:47:39;54.03;;;30.53;;
22172;SDS011;11252;50.596;17.648;2023-01-25T00:50:07;60.30;;;33.87;;
22172;SDS011;11252;50.596;17.648;2023-01-25T00:52:35;60.57;;;32.80;;
22172;SDS011;11252;50.596;17.648;2023-01-25T00:55:02;62.17;;;32.87;;
22172;SDS011;11252;50.596;17.648;2023-01-25T00:57:30;53.53;;;31.93;;
22172;SDS011;11252;50.596;17.648;2023-01-25T00:59:58;56.00;;;32.13;;
22172;SDS011;11252;50.596;17.648;2023-01-25T01:02:25;62.30;;;34.53;;
22172;SDS011;11252;50.596;17.648;2023-01-25T01:04:52;58.30;;;32.30;;
22172;SDS011;11252;50.596;17.648;2023-01-25T01:07:22;70.53;;;37.20;;
22172;SDS011;11252;50.596;17.648;2023-01-25T01:09:49;61.47;;;35.23;;
22172;SDS011;11252;50.596;17.648;2023-01-25T01:12:16;60.13;;;34.30;;
22172;SDS011;11252;50.596;17.648;2023-01-25T01:14:43;68.33;;;38.00;;
22172;SDS011;11252;50.596;17.648;2023-01-25T01:17:11;65.13;;;35.50;;
22172;SDS011;11252;50.596;17.648;2023-01-25T01:19:38;60.43;;;35.53;;
22172;SDS011;11252;50.596;17.648;2023-01-25T01:22:05;64.67;;;36.03;;
22172;SDS011;11252;50.596;17.648;2023-01-25T01:24:32;69.17;;;37.07;;
22172;SDS011;11252;50.596;17.648;2023-01-25T01:26:59;77.43;;;41.10;;
22172;SDS011;11252;50.596;17.648;2023-01-25T01:29:26;66.97;;;36.73;;
22172;SDS011;11252;50.596;17.648;2023-01-25T01:31:54;70.70;;;36.77;;
22172;SDS011;11252;50.596;17.648;2023-01-25T01:34:22;64.10;;;36.20;;
22172;SDS011;11252;50.596;17.648;2023-01-25T01:36:49;66.17;;;37.17;;
22172;SDS011;11252;50.596;17.648;2023-01-25T01:39:17;75.63;;;38.77;;
22172;SDS011;11252;50.596;17.648;2023-01-25T01:41:44;76.70;;;39.83;;
22172;SDS011;11252;50.596;17.648;2023-01-25T01:44:15;73.67;;;39.20;;
22172;SDS011;11252;50.596;17.648;2023-01-25T01:46:50;71.47;;;37.33;;
22172;SDS011;11252;50.596;17.648;2023-01-25T01:49:24;70.23;;;36.10;;
22172;SDS011;11252;50.596;17.648;2023-01-25T01:51:56;66.73;;;37.87;;
22172;SDS011;11252;50.596;17.648;2023-01-25T01:54:33;66.77;;;37.93;;
22172;SDS011;11252;50.596;17.648;2023-01-25T01:59:49;67.70;;;35.10;;
22172;SDS011;11252;50.596;17.648;2023-01-25T02:02:43;66.13;;;36.97;;
22172;SDS011;11252;50.596;17.648;2023-01-25T02:05:13;77.47;;;38.90;;
22172;SDS011;11252;50.596;17.648;2023-01-25T02:07:46;67.77;;;36.57;;
22172;SDS011;11252;50.596;17.648;2023-01-25T02:10:17;70.93;;;37.70;;
22172;SDS011;11252;50.596;17.648;2023-01-25T02:12:47;71.03;;;37.23;;
22172;SDS011;11252;50.596;17.648;2023-01-25T02:15:14;68.03;;;35.83;;
22172;SDS011;11252;50.596;17.648;2023-01-25T02:17:41;56.67;;;34.63;;
22172;SDS011;11252;50.596;17.648;2023-01-25T02:20:21;72.10;;;37.13;;
22172;SDS011;11252;50.596;17.648;2023-01-25T02:22:56;54.80;;;31.97;;
22172;SDS011;11252;50.596;17.648;2023-01-25T02:25:34;62.27;;;34.70;;
22172;SDS011;11252;50.596;17.648;2023-01-25T02:30:40;96.70;;;50.67;;
22172;SDS011;11252;50.596;17.648;2023-01-25T02:33:08;82.07;;;44.10;;
22172;SDS011;11252;50.596;17.648;2023-01-25T02:35:37;79.63;;;42.10;;
22172;SDS011;11252;50.596;17.648;2023-01-25T02:38:11;61.40;;;35.37;;
22172;SDS011;11252;50.596;17.648;2023-01-25T02:40:44;88.47;;;48.00;;
22172;SDS011;11252;50.596;17.648;2023-01-25T02:43:21;68.73;;;38.40;;
22172;SDS011;11252;50.596;17.648;2023-01-25T02:45:51;63.73;;;34.63;;
22172;SDS011;11252;50.596;17.648;2023-01-25T02:48:25;83.20;;;43.93;;
22172;SDS011;11252;50.596;17.648;2023-01-25T02:50:53;116.77;;;60.00;;
22172;SDS011;11252;50.596;17.648;2023-01-25T02:53:20;96.97;;;52.17;;
22172;SDS011;11252;50.596;17.648;2023-01-25T02:55:47;106.47;;;57.00;;
22172;SDS011;11252;50.596;17.648;2023-01-25T02:58:14;84.60;;;46.47;;
22172;SDS011;11252;50.596;17.648;2023-01-25T03:00:41;75.77;;;40.50;;
22172;SDS011;11252;50.596;17.648;2023-01-25T03:03:09;79.23;;;42.87;;
22172;SDS011;11252;50.596;17.648;2023-01-25T03:05:36;68.47;;;36.90;;
22172;SDS011;11252;50.596;17.648;2023-01-25T03:08:03;78.60;;;43.93;;
22172;SDS011;11252;50.596;17.648;2023-01-25T03:10:30;73.00;;;42.70;;
22172;SDS011;11252;50.596;17.648;2023-01-25T03:12:58;72.63;;;40.93;;
22172;SDS011;11252;50.596;17.648;2023-01-25T03:15:25;70.53;;;38.77;;
22172;SDS011;11252;50.596;17.648;2023-01-25T03:17:54;69.60;;;38.57;;
22172;SDS011;11252;50.596;17.648;2023-01-25T03:20:22;56.57;;;33.47;;
22172;SDS011;11252;50.596;17.648;2023-01-25T03:22:49;64.43;;;34.77;;
22172;SDS011;11252;50.596;17.648;2023-01-25T03:25:17;67.03;;;35.10;;
22172;SDS011;11252;50.596;17.648;2023-01-25T03:27:44;65.90;;;35.67;;
22172;SDS011;11252;50.596;17.648;2023-01-25T03:30:11;58.23;;;34.07;;
22172;SDS011;11252;50.596;17.648;2023-01-25T03:32:38;59.53;;;33.20;;
22172;SDS011;11252;50.596;17.648;2023-01-25T03:35:06;64.63;;;34.03;;
22172;SDS011;11252;50.596;17.648;2023-01-25T03:37:34;61.73;;;34.67;;
22172;SDS011;11252;50.596;17.648;2023-01-25T03:40:01;63.23;;;34.60;;
22172;SDS011;11252;50.596;17.648;2023-01-25T03:42:31;57.47;;;31.90;;
22172;SDS011;11252;50.596;17.648;2023-01-25T03:44:59;58.20;;;33.30;;
22172;SDS011;11252;50.596;17.648;2023-01-25T03:47:26;56.07;;;30.47;;
22172;SDS011;11252;50.596;17.648;2023-01-25T03:49:54;55.83;;;30.17;;
22172;SDS011;11252;50.596;17.648;2023-01-25T03:52:21;51.33;;;30.13;;
22172;SDS011;11252;50.596;17.648;2023-01-25T03:54:50;45.10;;;26.30;;
22172;SDS011;11252;50.596;17.648;2023-01-25T03:57:17;43.17;;;25.23;;
22172;SDS011;11252;50.596;17.648;2023-01-25T03:59:44;42.83;;;27.17;;
22172;SDS011;11252;50.596;17.648;2023-01-25T04:02:11;45.27;;;26.93;;
22172;SDS011;11252;50.596;17.648;2023-01-25T04:04:40;49.80;;;31.27;;
22172;SDS011;11252;50.596;17.648;2023-01-25T04:07:07;57.53;;;35.00;;
22172;SDS011;11252;50.596;17.648;2023-01-25T04:09:34;52.23;;;30.50;;
22172;SDS011;11252;50.596;17.648;2023-01-25T04:12:01;53.23;;;30.50;;
22172;SDS011;11252;50.596;17.648;2023-01-25T04:14:28;47.07;;;28.03;;
22172;SDS011;11252;50.596;17.648;2023-01-25T04:17:09;54.30;;;28.37;;
22172;SDS011;11252;50.596;17.648;2023-01-25T04:19:36;55.13;;;31.67;;
22172;SDS011;11252;50.596;17.648;2023-01-25T04:22:04;61.60;;;37.07;;
22172;SDS011;11252;50.596;17.648;2023-01-25T04:24:31;60.40;;;37.23;;
22172;SDS011;11252;50.596;17.648;2023-01-25T04:26:58;48.80;;;28.60;;
22172;SDS011;11252;50.596;17.648;2023-01-25T04:29:26;44.37;;;28.10;;
22172;SDS011;11252;50.596;17.648;2023-01-25T04:32:06;48.90;;;27.97;;
22172;SDS011;11252;50.596;17.648;2023-01-25T04:34:33;42.27;;;25.93;;
22172;SDS011;11252;50.596;17.648;2023-01-25T04:37:00;51.23;;;31.47;;
22172;SDS011;11252;50.596;17.648;2023-01-25T04:39:27;46.67;;;27.20;;
22172;SDS011;11252;50.596;17.648;2023-01-25T04:41:55;49.87;;;29.67;;
22172;SDS011;11252;50.596;17.648;2023-01-25T04:44:22;49.13;;;31.27;;
22172;SDS011;11252;50.596;17.648;2023-01-25T04:46:49;46.90;;;28.40;;
22172;SDS011;11252;50.596;17.648;2023-01-25T04:49:16;59.50;;;31.23;;
22172;SDS011;11252;50.596;17.648;2023-01-25T04:51:43;56.90;;;30.77;;
22172;SDS011;11252;50.596;17.648;2023-01-25T04:54:10;45.40;;;27.87;;
22172;SDS011;11252;50.596;17.648;2023-01-25T04:56:38;43.83;;;27.00;;
22172;SDS011;11252;50.596;17.648;2023-01-25T04:59:05;48.53;;;28.00;;
22172;SDS011;11252;50.596;17.648;2023-01-25T05:01:32;45.40;;;26.93;;
22172;SDS011;11252;50.596;17.648;2023-01-25T05:04:00;48.97;;;27.77;;
22172;SDS011;11252;50.596;17.648;2023-01-25T05:06:27;48.33;;;27.40;;
22172;SDS011;11252;50.596;17.648;2023-01-25T05:08:54;45.10;;;26.90;;
22172;SDS011;11252;50.596;17.648;2023-01-25T05:11:21;50.03;;;28.27;;
22172;SDS011;11252;50.596;17.648;2023-01-25T05:13:49;48.40;;;26.97;;
22172;SDS011;11252;50.596;17.648;2023-01-25T05:16:17;45.20;;;26.43;;
22172;SDS011;11252;50.596;17.648;2023-01-25T05:18:44;49.00;;;29.40;;
22172;SDS011;11252;50.596;17.648;2023-01-25T05:21:16;69.33;;;38.93;;
22172;SDS011;11252;50.596;17.648;2023-01-25T05:24:01;63.97;;;37.07;;
22172;SDS011;11252;50.596;17.648;2023-01-25T05:26:29;62.43;;;37.40;;
22172;SDS011;11252;50.596;17.648;2023-01-25T05:29:15;68.37;;;37.40;;
22172;SDS011;11252;50.596;17.648;2023-01-25T05:31:42;62.33;;;36.40;;
22172;SDS011;11252;50.596;17.648;2023-01-25T05:34:10;55.90;;;33.87;;
22172;SDS011;11252;50.596;17.648;2023-01-25T05:36:37;52.80;;;31.13;;
22172;SDS011;11252;50.596;17.648;2023-01-25T05:39:04;49.37;;;29.10;;
22172;SDS011;11252;50.596;17.648;2023-01-25T05:41:32;47.17;;;28.20;;
22172;SDS011;11252;50.596;17.648;2023-01-25T05:43:59;53.20;;;30.20;;
22172;SDS011;11252;50.596;17.648;2023-01-25T05:46:27;58.33;;;32.47;;
22172;SDS011;11252;50.596;17.648;2023-01-25T05:48:54;48.97;;;28.97;;
22172;SDS011;11252;50.596;17.648;2023-01-25T05:51:22;49.23;;;29.87;;
22172;SDS011;11252;50.596;17.648;2023-01-25T05:53:53;52.73;;;29.17;;
22172;SDS011;11252;50.596;17.648;2023-01-25T05:56:21;54.13;;;30.93;;
22172;SDS011;11252;50.596;17.648;2023-01-25T05:58:52;55.03;;;30.50;;
22172;SDS011;11252;50.596;17.648;2023-01-25T06:01:20;59.83;;;30.03;;
22172;SDS011;11252;50.596;17.648;2023-01-25T06:03:48;52.77;;;30.03;;
22172;SDS011;11252;50.596;17.648;2023-01-25T06:06:15;45.43;;;26.67;;
22172;SDS011;11252;50.596;17.648;2023-01-25T06:08:42;49.87;;;25.93;;
22172;SDS011;11252;50.596;17.648;2023-01-25T06:11:11;43.93;;;25.43;;
22172;SDS011;11252;50.596;17.648;2023-01-25T06:13:41;42.87;;;25.53;;
22172;SDS011;11252;50.596;17.648;2023-01-25T06:16:09;46.63;;;24.30;;
22172;SDS011;11252;50.596;17.648;2023-01-25T06:18:36;40.90;;;24.03;;
22172;SDS011;11252;50.596;17.648;2023-01-25T06:21:04;56.77;;;29.47;;
22172;SDS011;11252;50.596;17.648;2023-01-25T06:23:31;48.57;;;26.83;;
22172;SDS011;11252;50.596;17.648;2023-01-25T06:26:00;52.67;;;27.00;;
22172;SDS011;11252;50.596;17.648;2023-01-25T06:28:29;53.83;;;27.97;;
22172;SDS011;11252;50.596;17.648;2023-01-25T06:31:08;51.87;;;29.77;;
22172;SDS011;11252;50.596;17.648;2023-01-25T06:33:40;55.73;;;30.53;;
22172;SDS011;11252;50.596;17.648;2023-01-25T06:36:12;51.67;;;28.77;;
22172;SDS011;11252;50.596;17.648;2023-01-25T06:38:41;45.80;;;26.37;;
22172;SDS011;11252;50.596;17.648;2023-01-25T06:41:09;44.70;;;27.20;;
22172;SDS011;11252;50.596;17.648;2023-01-25T06:43:38;48.67;;;28.30;;
22172;SDS011;11252;50.596;17.648;2023-01-25T06:46:07;55.00;;;29.47;;
22172;SDS011;11252;50.596;17.648;2023-01-25T06:48:37;50.10;;;28.53;;
22172;SDS011;11252;50.596;17.648;2023-01-25T06:51:07;57.47;;;31.73;;
22172;SDS011;11252;50.596;17.648;2023-01-25T06:53:40;61.50;;;33.67;;
22172;SDS011;11252;50.596;17.648;2023-01-25T06:56:14;63.40;;;35.67;;
22172;SDS011;11252;50.596;17.648;2023-01-25T06:58:47;53.57;;;29.90;;
22172;SDS011;11252;50.596;17.648;2023-01-25T14:34:53;65.83;;;29.53;;
22172;SDS011;11252;50.596;17.648;2023-01-25T14:37:23;67.17;;;29.87;;
22172;SDS011;11252;50.596;17.648;2023-01-25T14:39:59;64.87;;;27.20;;
22172;SDS011;11252;50.596;17.648;2023-01-25T14:42:37;71.67;;;28.63;;
22172;SDS011;11252;50.596;17.648;2023-01-25T14:45:05;61.67;;;28.13;;
22172;SDS011;11252;50.596;17.648;2023-01-25T14:47:39;66.50;;;30.33;;
22172;SDS011;11252;50.596;17.648;2023-01-25T14:50:29;59.17;;;27.27;;
22172;SDS011;11252;50.596;17.648;2023-01-25T14:52:58;68.93;;;31.53;;
22172;SDS011;11252;50.596;17.648;2023-01-25T14:55:34;66.90;;;30.43;;
22172;SDS011;11252;50.596;17.648;2023-01-25T14:58:02;57.37;;;27.17;;
22172;SDS011;11252;50.596;17.648;2023-01-25T15:00:33;66.13;;;31.93;;
22172;SDS011;11252;50.596;17.648;2023-01-25T15:03:03;68.37;;;32.00;;
22172;SDS011;11252;50.596;17.648;2023-01-25T15:05:33;71.90;;;36.33;;
22172;SDS011;11252;50.596;17.648;2023-01-25T15:10:35;159.73;;;74.03;;
22172;SDS011;11252;50.596;17.648;2023-01-25T15:15:52;88.57;;;45.57;;
22172;SDS011;11252;50.596;17.648;2023-01-25T15:21:17;93.60;;;51.87;;
22172;SDS011;11252;50.596;17.648;2023-01-25T15:23:47;133.77;;;78.67;;
22172;SDS011;11252;50.596;17.648;2023-01-25T15:26:20;78.07;;;39.80;;
22172;SDS011;11252;50.596;17.648;2023-01-25T15:28:49;141.00;;;71.70;;
22172;SDS011;11252;50.596;17.648;2023-01-25T15:31:26;120.00;;;61.67;;
22172;SDS011;11252;50.596;17.648;2023-01-25T15:33:56;346.47;;;222.23;;
22172;SDS011;11252;50.596;17.648;2023-01-25T15:36:26;313.43;;;182.50;;
22172;SDS011;11252;50.596;17.648;2023-01-25T15:38:54;220.07;;;116.27;;
22172;SDS011;11252;50.596;17.648;2023-01-25T15:41:22;490.93;;;202.90;;
22172;SDS011;11252;50.596;17.648;2023-01-25T15:43:49;479.67;;;191.27;;
22172;SDS011;11252;50.596;17.648;2023-01-25T15:46:18;1251.23;;;515.47;;
22172;SDS011;11252;50.596;17.648;2023-01-25T15:48:53;431.63;;;173.57;;
22172;SDS011;11252;50.596;17.648;2023-01-25T15:51:24;278.17;;;119.33;;
22172;SDS011;11252;50.596;17.648;2023-01-25T15:53:52;177.60;;;74.17;;
22172;SDS011;11252;50.596;17.648;2023-01-25T15:56:21;132.33;;;63.03;;
22172;SDS011;11252;50.596;17.648;2023-01-25T15:59:00;174.10;;;85.03;;
22172;SDS011;11252;50.596;17.648;2023-01-25T16:01:33;154.10;;;74.20;;
22172;SDS011;11252;50.596;17.648;2023-01-25T16:04:05;169.60;;;80.73;;
22172;SDS011;11252;50.596;17.648;2023-01-25T16:06:37;155.57;;;76.30;;
22172;SDS011;11252;50.596;17.648;2023-01-25T16:09:26;147.07;;;78.00;;
22172;SDS011;11252;50.596;17.648;2023-01-25T16:11:58;136.63;;;68.93;;
22172;SDS011;11252;50.596;17.648;2023-01-25T16:14:27;134.73;;;69.40;;
22172;SDS011;11252;50.596;17.648;2023-01-25T16:16:59;147.03;;;76.73;;
22172;SDS011;11252;50.596;17.648;2023-01-25T16:19:28;98.40;;;48.80;;
22172;SDS011;11252;50.596;17.648;2023-01-25T16:21:58;110.07;;;56.47;;
22172;SDS011;11252;50.596;17.648;2023-01-25T16:24:26;105.47;;;51.27;;
22172;SDS011;11252;50.596;17.648;2023-01-25T16:26:54;98.77;;;50.93;;
22172;SDS011;11252;50.596;17.648;2023-01-25T16:29:23;106.27;;;55.83;;
22172;SDS011;11252;50.596;17.648;2023-01-25T16:31:51;116.20;;;55.57;;
22172;SDS011;11252;50.596;17.648;2023-01-25T16:34:19;132.30;;;70.80;;
22172;SDS011;11252;50.596;17.648;2023-01-25T16:36:48;102.23;;;52.40;;
22172;SDS011;11252;50.596;17.648;2023-01-25T16:39:18;116.97;;;61.47;;
22172;SDS011;11252;50.596;17.648;2023-01-25T16:41:48;106.07;;;55.87;;
22172;SDS011;11252;50.596;17.648;2023-01-25T16:44:16;119.03;;;60.53;;
22172;SDS011;11252;50.596;17.648;2023-01-25T16:46:43;102.60;;;50.13;;
22172;SDS011;11252;50.596;17.648;2023-01-25T16:49:14;114.00;;;53.53;;
22172;SDS011;11252;50.596;17.648;2023-01-25T16:51:46;126.67;;;63.60;;
22172;SDS011;11252;50.596;17.648;2023-01-25T16:54:18;147.03;;;70.83;;
22172;SDS011;11252;50.596;17.648;2023-01-25T16:56:47;143.87;;;70.77;;
22172;SDS011;11252;50.596;17.648;2023-01-25T16:59:15;155.47;;;78.30;;
22172;SDS011;11252;50.596;17.648;2023-01-25T17:01:44;172.60;;;88.33;;
22172;SDS011;11252;50.596;17.648;2023-01-25T17:04:12;176.67;;;90.30;;
22172;SDS011;11252;50.596;17.648;2023-01-25T17:06:42;174.87;;;91.80;;
22172;SDS011;11252;50.596;17.648;2023-01-25T17:09:13;211.13;;;100.83;;
22172;SDS011;11252;50.596;17.648;2023-01-25T17:11:49;244.70;;;120.80;;
22172;SDS011;11252;50.596;17.648;2023-01-25T17:14:18;230.17;;;106.00;;
22172;SDS011;11252;50.596;17.648;2023-01-25T17:16:47;206.47;;;102.30;;
22172;SDS011;11252;50.596;17.648;2023-01-25T17:19:17;210.90;;;103.00;;
22172;SDS011;11252;50.596;17.648;2023-01-25T17:21:45;215.43;;;106.67;;
22172;SDS011;11252;50.596;17.648;2023-01-25T17:24:14;135.73;;;69.93;;
22172;SDS011;11252;50.596;17.648;2023-01-25T17:26:45;91.83;;;48.10;;
22172;SDS011;11252;50.596;17.648;2023-01-25T17:29:12;83.57;;;41.40;;
22172;SDS011;11252;50.596;17.648;2023-01-25T17:31:40;81.50;;;42.77;;
22172;SDS011;11252;50.596;17.648;2023-01-25T17:34:10;92.17;;;43.87;;
22172;SDS011;11252;50.596;17.648;2023-01-25T17:36:41;84.77;;;40.00;;
22172;SDS011;11252;50.596;17.648;2023-01-25T17:39:10;78.73;;;39.10;;
22172;SDS011;11252;50.596;17.648;2023-01-25T17:41:43;139.27;;;67.23;;
22172;SDS011;11252;50.596;17.648;2023-01-25T17:44:12;139.03;;;66.50;;
22172;SDS011;11252;50.596;17.648;2023-01-25T17:46:43;140.50;;;64.83;;
22172;SDS011;11252;50.596;17.648;2023-01-25T17:49:11;184.97;;;76.87;;
22172;SDS011;11252;50.596;17.648;2023-01-25T17:51:39;145.17;;;62.23;;
22172;SDS011;11252;50.596;17.648;2023-01-25T17:54:08;140.43;;;63.43;;
22172;SDS011;11252;50.596;17.648;2023-01-25T17:56:37;204.00;;;87.27;;
22172;SDS011;11252;50.596;17.648;2023-01-25T17:59:06;311.50;;;124.53;;
22172;SDS011;11252;50.596;17.648;2023-01-25T18:01:37;389.93;;;162.50;;
22172;SDS011;11252;50.596;17.648;2023-01-25T18:04:06;298.47;;;117.80;;
22172;SDS011;11252;50.596;17.648;2023-01-25T18:06:34;325.93;;;126.30;;
22172;SDS011;11252;50.596;17.648;2023-01-25T18:09:03;218.23;;;95.57;;
22172;SDS011;11252;50.596;17.648;2023-01-25T18:11:33;201.40;;;95.33;;
22172;SDS011;11252;50.596;17.648;2023-01-25T18:14:03;206.67;;;101.83;;
22172;SDS011;11252;50.596;17.648;2023-01-25T18:16:36;189.87;;;87.37;;
22172;SDS011;11252;50.596;17.648;2023-01-25T18:19:06;239.27;;;105.83;;
22172;SDS011;11252;50.596;17.648;2023-01-25T18:21:34;210.43;;;89.07;;
22172;SDS011;11252;50.596;17.648;2023-01-25T18:24:03;204.50;;;97.40;;
22172;SDS011;11252;50.596;17.648;2023-01-25T18:26:53;188.47;;;87.07;;
22172;SDS011;11252;50.596;17.648;2023-01-25T18:29:38;191.43;;;85.20;;
22172;SDS011;11252;50.596;17.648;2023-01-25T18:32:10;188.33;;;90.83;;
22172;SDS011;11252;50.596;17.648;2023-01-25T18:34:38;337.80;;;187.17;;
22172;SDS011;11252;50.596;17.648;2023-01-25T18:37:05;372.33;;;216.17;;
22172;SDS011;11252;50.596;17.648;2023-01-25T18:39:44;345.90;;;209.57;;
22172;SDS011;11252;50.596;17.648;2023-01-25T18:42:14;336.47;;;194.00;;
22172;SDS011;11252;50.596;17.648;2023-01-25T18:44:42;273.87;;;143.70;;
22172;SDS011;11252;50.596;17.648;2023-01-25T18:47:14;184.07;;;95.87;;
22172;SDS011;11252;50.596;17.648;2023-01-25T18:49:49;188.70;;;92.23;;
22172;SDS011;11252;50.596;17.648;2023-01-25T18:52:21;171.33;;;84.27;;
22172;SDS011;11252;50.596;17.648;2023-01-25T18:54:51;114.40;;;55.53;;
22172;SDS011;11252;50.596;17.648;2023-01-25T18:57:19;108.43;;;48.27;;
22172;SDS011;11252;50.596;17.648;2023-01-25T18:59:46;103.27;;;45.73;;
22172;SDS011;11252;50.596;17.648;2023-01-25T19:02:15;102.30;;;46.17;;
22172;SDS011;11252;50.596;17.648;2023-01-25T19:04:45;111.33;;;49.50;;
22172;SDS011;11252;50.596;17.648;2023-01-25T19:07:12;120.13;;;53.77;;
22172;SDS011;11252;50.596;17.648;2023-01-25T19:09:40;121.57;;;55.60;;
22172;SDS011;11252;50.596;17.648;2023-01-25T19:12:10;127.17;;;54.37;;
22172;SDS011;11252;50.596;17.648;2023-01-25T19:14:38;131.53;;;50.77;;
22172;SDS011;11252;50.596;17.648;2023-01-25T19:17:06;120.00;;;51.30;;
22172;SDS011;11252;50.596;17.648;2023-01-25T19:19:33;121.60;;;49.60;;
22172;SDS011;11252;50.596;17.648;2023-01-25T19:22:01;108.67;;;43.83;;
22172;SDS011;11252;50.596;17.648;2023-01-25T19:24:29;92.37;;;40.17;;
22172;SDS011;11252;50.596;17.648;2023-01-25T19:27:10;106.23;;;40.93;;
22172;SDS011;11252;50.596;17.648;2023-01-25T19:29:37;103.70;;;43.13;;
22172;SDS011;11252;50.596;17.648;2023-01-25T19:32:07;112.60;;;46.13;;
22172;SDS011;11252;50.596;17.648;2023-01-25T19:34:37;108.13;;;42.97;;
22172;SDS011;11252;50.596;17.648;2023-01-25T19:37:04;114.63;;;46.30;;
22172;SDS011;11252;50.596;17.648;2023-01-25T19:39:33;118.33;;;48.97;;
22172;SDS011;11252;50.596;17.648;2023-01-25T19:42:02;126.93;;;52.07;;
22172;SDS011;11252;50.596;17.648;2023-01-25T19:44:30;131.43;;;58.40;;
22172;SDS011;11252;50.596;17.648;2023-01-25T19:47:00;114.43;;;54.80;;
22172;SDS011;11252;50.596;17.648;2023-01-25T19:49:33;136.97;;;62.47;;
22172;SDS011;11252;50.596;17.648;2023-01-25T19:52:03;137.23;;;57.53;;
22172;SDS011;11252;50.596;17.648;2023-01-25T19:54:40;114.13;;;45.30;;
22172;SDS011;11252;50.596;17.648;2023-01-25T19:57:11;100.93;;;44.63;;
22172;SDS011;11252;50.596;17.648;2023-01-25T19:59:38;130.83;;;42.03;;
22172;SDS011;11252;50.596;17.648;2023-01-25T20:02:10;163.63;;;49.67;;
22172;SDS011;11252;50.596;17.648;2023-01-25T20:04:39;343.87;;;79.60;;
22172;SDS011;11252;50.596;17.648;2023-01-25T20:07:07;310.40;;;108.27;;
22172;SDS011;11252;50.596;17.648;2023-01-25T20:09:36;225.87;;;122.50;;
22172;SDS011;11252;50.596;17.648;2023-01-25T20:12:04;204.00;;;100.80;;
22172;SDS011;11252;50.596;17.648;2023-01-25T20:14:34;128.90;;;58.57;;
22172;SDS011;11252;50.596;17.648;2023-01-25T20:17:05;205.77;;;83.27;;
22172;SDS011;11252;50.596;17.648;2023-01-25T20:19:34;183.93;;;80.77;;
22172;SDS011;11252;50.596;17.648;2023-01-25T20:22:03;157.97;;;66.53;;
22172;SDS011;11252;50.596;17.648;2023-01-25T20:24:31;221.87;;;94.37;;
22172;SDS011;11252;50.596;17.648;2023-01-25T20:26:59;542.70;;;200.77;;
22172;SDS011;11252;50.596;17.648;2023-01-25T20:29:29;338.47;;;143.03;;
22172;SDS011;11252;50.596;17.648;2023-01-25T20:31:58;279.83;;;108.97;;
22172;SDS011;11252;50.596;17.648;2023-01-25T20:34:26;232.40;;;95.07;;
22172;SDS011;11252;50.596;17.648;2023-01-25T20:36:54;360.10;;;130.70;;
22172;SDS011;11252;50.596;17.648;2023-01-25T20:39:22;330.93;;;127.57;;
22172;SDS011;11252;50.596;17.648;2023-01-25T20:41:52;290.53;;;114.07;;
22172;SDS011;11252;50.596;17.648;2023-01-25T20:44:24;293.50;;;117.73;;
22172;SDS011;11252;50.596;17.648;2023-01-25T20:46:53;256.83;;;108.03;;
22172;SDS011;11252;50.596;17.648;2023-01-25T20:49:21;216.43;;;91.50;;
22172;SDS011;11252;50.596;17.648;2023-01-25T20:51:48;244.37;;;95.90;;
22172;SDS011;11252;50.596;17.648;2023-01-25T20:54:15;320.17;;;97.40;;
22172;SDS011;11252;50.596;17.648;2023-01-25T20:56:44;192.67;;;75.60;;
22172;SDS011;11252;50.596;17.648;2023-01-25T20:59:13;170.20;;;65.83;;
22172;SDS011;11252;50.596;17.648;2023-01-25T21:01:42;147.67;;;63.60;;
22172;SDS011;11252;50.596;17.648;2023-01-25T21:04:09;160.30;;;62.57;;
22172;SDS011;11252;50.596;17.648;2023-01-25T21:06:37;148.63;;;54.90;;
22172;SDS011;11252;50.596;17.648;2023-01-25T21:09:05;122.23;;;47.70;;
22172;SDS011;11252;50.596;17.648;2023-01-25T21:11:32;128.73;;;51.33;;
22172;SDS011;11252;50.596;17.648;2023-01-25T21:14:00;121.10;;;47.87;;
22172;SDS011;11252;50.596;17.648;2023-01-25T21:16:27;118.80;;;45.57;;
22172;SDS011;11252;50.596;17.648;2023-01-25T21:18:56;127.57;;;47.23;;
22172;SDS011;11252;50.596;17.648;2023-01-25T21:21:28;129.70;;;48.20;;
22172;SDS011;11252;50.596;17.648;2023-01-25T21:23:57;127.20;;;49.13;;
22172;SDS011;11252;50.596;17.648;2023-01-25T21:26:26;130.87;;;48.00;;
22172;SDS011;11252;50.596;17.648;2023-01-25T21:28:56;124.53;;;45.17;;
22172;SDS011;11252;50.596;17.648;2023-01-25T21:31:28;131.97;;;48.57;;
22172;SDS011;11252;50.596;17.648;2023-01-25T21:33:58;140.50;;;48.87;;
22172;SDS011;11252;50.596;17.648;2023-01-25T21:36:26;119.77;;;46.27;;
22172;SDS011;11252;50.596;17.648;2023-01-25T21:38:54;110.93;;;44.90;;
22172;SDS011;11252;50.596;17.648;2023-01-25T21:41:23;108.67;;;42.77;;
22172;SDS011;11252;50.596;17.648;2023-01-25T21:43:52;83.60;;;36.10;;
22172;SDS011;11252;50.596;17.648;2023-01-25T21:46:39;81.60;;;34.83;;
22172;SDS011;11252;50.596;17.648;2023-01-25T21:49:08;83.23;;;33.93;;
22172;SDS011;11252;50.596;17.648;2023-01-25T21:51:55;89.20;;;35.27;;
22172;SDS011;11252;50.596;17.648;2023-01-25T21:54:30;93.00;;;38.67;;
22172;SDS011;11252;50.596;17.648;2023-01-25T21:57:00;96.30;;;40.47;;
22172;SDS011;11252;50.596;17.648;2023-01-25T21:59:30;119.47;;;45.87;;
22172;SDS011;11252;50.596;17.648;2023-01-25T22:01:57;114.47;;;53.20;;